< < Back
Terminal Aerodrome Forecast


Current Version              Previous Versions:   1  2  3  4  5  6  7  8  9  

Terminal Aerodrome Forecast

842
FTUS44 KHUN 282346 AAA
TAFHSV
TAF AMD
KHSV 282346Z 2900/2924 24005KT P6SM VCSH BKN015 OVC025
     FM290500 24005KT 5SM BR VCSH BKN008 OVC015
     FM291400 25005KT P6SM BKN015
     FM291700 25006KT P6SM VCTS SCT025 BKN050CB=

Latest METAR

035
SAUS80 KWBC 292300 CCA
MTRHSV
METAR KHSV 292253Z 23007KT 10SM FEW045 BKN150 31/21 A2996 RMK AO2 SLP135
T03110206


USA.gov is the U.S. government's official web portal to all federal, state and local government web resources and services.